createdAt,value
2019-03-26T00:00:49.839Z,991.261
2019-03-26T00:02:49.989Z,991.290
2019-03-26T00:04:50.418Z,991.307
2019-03-26T00:06:49.612Z,991.324
2019-03-26T00:08:50.621Z,991.334
2019-03-26T00:10:49.623Z,991.368
2019-03-26T00:12:49.833Z,991.380
2019-03-26T00:14:49.880Z,991.446
2019-03-26T00:16:50.043Z,991.486
2019-03-26T00:18:50.187Z,991.483
2019-03-26T00:20:50.249Z,991.515
2019-03-26T00:22:50.300Z,991.541
2019-03-26T00:24:50.255Z,991.551
2019-03-26T00:26:50.265Z,991.556
2019-03-26T00:28:50.153Z,991.559
2019-03-26T00:30:49.984Z,991.577
2019-03-26T00:32:49.940Z,991.592
2019-03-26T00:34:50.212Z,991.630
2019-03-26T00:36:50.224Z,991.630
2019-03-26T00:38:50.602Z,991.681
2019-03-26T00:40:49.607Z,991.664
2019-03-26T00:42:50.501Z,991.645
2019-03-26T00:44:50.391Z,991.655
2019-03-26T00:46:50.358Z,991.661
2019-03-26T00:48:50.261Z,991.662
2019-03-26T00:50:50.161Z,991.700
2019-03-26T00:52:50.087Z,991.754
2019-03-26T00:54:50.081Z,991.811
2019-03-26T00:56:50.154Z,991.851
2019-03-26T00:58:49.994Z,991.889
2019-03-26T01:00:50.026Z,991.915
2019-03-26T01:02:49.926Z,991.961
2019-03-26T01:04:50.238Z,991.975
2019-03-26T01:06:50.402Z,991.989
2019-03-26T01:08:50.294Z,992.002
2019-03-26T01:10:50.187Z,992.024
2019-03-26T01:12:50.131Z,992.036
2019-03-26T01:14:49.992Z,992.056
2019-03-26T01:16:49.994Z,992.108
2019-03-26T01:18:49.906Z,992.114
2019-03-26T01:20:49.897Z,992.127
2019-03-26T01:22:49.838Z,992.110
2019-03-26T01:24:49.611Z,992.111
2019-03-26T01:26:49.720Z,992.105
2019-03-26T01:28:50.580Z,992.092
2019-03-26T01:30:50.493Z,992.090
2019-03-26T01:32:50.347Z,992.093
2019-03-26T01:34:50.493Z,992.088
2019-03-26T01:36:50.545Z,992.076
2019-03-26T01:38:50.452Z,992.062
2019-03-26T01:40:50.376Z,992.025
2019-03-26T01:42:50.251Z,991.987
2019-03-26T01:44:50.239Z,991.974
2019-03-26T01:46:50.245Z,991.969
2019-03-26T01:48:50.148Z,992.003
2019-03-26T01:50:50.169Z,992.009
2019-03-26T01:52:50.086Z,992.044
2019-03-26T01:54:49.919Z,992.080
2019-03-26T01:56:50.039Z,992.111
2019-03-26T01:58:49.943Z,992.137
2019-03-26T02:00:50.061Z,992.168
2019-03-26T02:02:49.972Z,992.160
2019-03-26T02:05:01.007Z,992.147
2019-03-26T02:06:49.917Z,992.122
2019-03-26T02:08:49.785Z,992.117
2019-03-26T02:10:49.645Z,992.109
2019-03-26T02:12:49.697Z,992.087
2019-03-26T02:14:49.757Z,992.040
2019-03-26T02:16:50.023Z,992.033
2019-03-26T02:18:49.941Z,992.025
2019-03-26T02:20:49.951Z,992.029
2019-03-26T02:22:50.016Z,992.099
2019-03-26T02:24:50.082Z,992.173
2019-03-26T02:26:50.172Z,992.202
2019-03-26T02:28:50.133Z,992.202
2019-03-26T02:30:50.132Z,992.205
2019-03-26T02:32:50.077Z,992.211
2019-03-26T02:34:50.313Z,992.237
2019-03-26T02:36:50.282Z,992.249
2019-03-26T02:38:50.258Z,992.251
2019-03-26T02:40:50.099Z,992.243
2019-03-26T02:42:50.011Z,992.261
2019-03-26T02:44:49.870Z,992.278
2019-03-26T02:46:49.926Z,992.268
2019-03-26T02:48:49.887Z,992.260
2019-03-26T02:50:49.744Z,992.299
2019-03-26T02:52:49.633Z,992.309
2019-03-26T02:54:50.453Z,992.340
2019-03-26T02:56:50.559Z,992.352
2019-03-26T02:58:50.504Z,992.359
2019-03-26T03:00:50.378Z,992.366
2019-03-26T03:02:50.423Z,992.363
2019-03-26T03:04:49.752Z,992.360
2019-03-26T03:06:49.757Z,992.383
2019-03-26T03:08:50.369Z,992.389
2019-03-26T03:10:50.254Z,992.409
2019-03-26T03:12:50.184Z,992.406
2019-03-26T03:14:50.101Z,992.387
2019-03-26T03:16:50.247Z,992.400
2019-03-26T03:18:50.118Z,992.424
2019-03-26T03:20:50.000Z,992.409
2019-03-26T03:22:49.896Z,992.426
2019-03-26T03:24:49.743Z,992.476
2019-03-26T03:26:49.818Z,992.515
2019-03-26T03:28:49.688Z,992.531
2019-03-26T03:30:49.660Z,992.554
2019-03-26T03:32:50.615Z,992.572
2019-03-26T03:34:50.238Z,992.586
2019-03-26T03:36:50.589Z,992.591
2019-03-26T03:38:49.656Z,992.594
2019-03-26T03:40:49.792Z,992.592
2019-03-26T03:42:49.995Z,992.589
2019-03-26T03:44:50.087Z,992.593
2019-03-26T03:46:50.327Z,992.605
2019-03-26T03:48:50.613Z,992.630
2019-03-26T03:50:49.902Z,992.635
2019-03-26T03:52:50.058Z,992.639
2019-03-26T03:54:50.103Z,992.628
2019-03-26T03:56:50.354Z,992.658
2019-03-26T03:58:50.432Z,992.683
2019-03-26T04:00:50.510Z,992.724
2019-03-26T04:02:50.588Z,992.749
2019-03-26T04:04:49.987Z,992.778
2019-03-26T04:06:50.180Z,992.849
2019-03-26T04:08:50.218Z,992.895
2019-03-26T04:10:50.233Z,992.932
2019-03-26T04:12:50.437Z,992.931
2019-03-26T04:14:50.608Z,992.922
2019-03-26T04:16:49.854Z,992.905
2019-03-26T04:18:49.908Z,992.924
2019-03-26T04:20:50.006Z,992.944
2019-03-26T04:22:50.041Z,992.957
2019-03-26T04:24:50.055Z,992.952
2019-03-26T04:26:50.216Z,992.986
2019-03-26T04:28:50.266Z,993.022
2019-03-26T04:30:50.370Z,993.034
2019-03-26T04:32:50.484Z,993.024
2019-03-26T04:34:49.835Z,993.031
2019-03-26T04:36:49.964Z,993.036
2019-03-26T04:38:50.014Z,993.074
2019-03-26T04:40:50.091Z,993.125
2019-03-26T04:42:50.169Z,993.170
2019-03-26T04:44:50.322Z,993.181
2019-03-26T04:46:50.466Z,993.188
2019-03-26T04:48:50.534Z,993.169
2019-03-26T04:50:49.745Z,993.162
2019-03-26T04:52:49.814Z,993.137
2019-03-26T04:54:49.909Z,993.150
2019-03-26T04:56:50.159Z,993.160
2019-03-26T04:58:50.150Z,993.166
2019-03-26T05:00:50.251Z,993.215
2019-03-26T05:02:50.342Z,993.267
2019-03-26T05:04:49.769Z,993.326
2019-03-26T05:06:49.991Z,993.371
2019-03-26T05:08:50.092Z,993.401
2019-03-26T05:10:50.117Z,993.401
2019-03-26T05:12:50.117Z,993.479
2019-03-26T05:14:50.233Z,993.479
2019-03-26T05:16:50.470Z,993.491
2019-03-26T05:18:50.527Z,993.508
2019-03-26T05:20:49.622Z,993.499
2019-03-26T05:22:49.737Z,993.499
2019-03-26T05:24:49.845Z,993.518
2019-03-26T05:26:50.592Z,993.540
2019-03-26T05:28:49.623Z,993.564
2019-03-26T05:30:49.670Z,993.562
2019-03-26T05:32:49.786Z,993.563
2019-03-26T05:34:50.315Z,993.525
2019-03-26T05:36:52.178Z,993.524
2019-03-26T05:38:50.216Z,993.525
2019-03-26T05:40:50.280Z,993.519
2019-03-26T05:42:50.242Z,993.515
2019-03-26T05:44:50.363Z,993.515
2019-03-26T05:46:50.444Z,993.497
2019-03-26T05:48:50.569Z,993.498
2019-03-26T05:50:49.621Z,993.530
2019-03-26T05:52:49.796Z,993.541
2019-03-26T05:54:49.793Z,993.545
2019-03-26T05:56:50.180Z,993.535
2019-03-26T05:58:50.176Z,993.522
2019-03-26T06:00:50.250Z,993.530
2019-03-26T06:02:50.282Z,993.534
2019-03-26T06:04:49.630Z,993.550
2019-03-26T06:06:49.955Z,993.571
2019-03-26T06:08:49.979Z,993.577
2019-03-26T06:10:50.028Z,993.590
2019-03-26T06:12:50.644Z,993.611
2019-03-26T06:14:49.710Z,993.620
2019-03-26T06:16:50.010Z,993.678
2019-03-26T06:18:50.090Z,993.724
2019-03-26T06:20:50.264Z,993.752
2019-03-26T06:22:50.388Z,993.782
2019-03-26T06:24:50.494Z,993.783
2019-03-26T06:26:49.756Z,993.807
2019-03-26T06:28:49.821Z,993.819
2019-03-26T06:30:49.944Z,993.808
2019-03-26T06:32:50.022Z,993.795
2019-03-26T06:34:50.571Z,993.781
2019-03-26T06:36:50.354Z,993.769
2019-03-26T06:38:50.414Z,993.766
2019-03-26T06:40:49.674Z,993.771
2019-03-26T06:42:49.683Z,993.771
2019-03-26T06:44:49.754Z,993.773
2019-03-26T06:46:49.901Z,993.753
2019-03-26T06:48:50.000Z,993.784
2019-03-26T06:50:50.018Z,993.835
2019-03-26T06:52:50.146Z,993.876
2019-03-26T06:54:52.114Z,993.891
2019-03-26T06:56:50.490Z,993.900
2019-03-26T06:58:49.682Z,993.916
2019-03-26T07:00:49.859Z,993.925
2019-03-26T07:02:49.949Z,993.962
2019-03-26T07:04:50.402Z,993.973
2019-03-26T07:06:49.631Z,993.994
2019-03-26T07:08:49.758Z,993.979
2019-03-26T07:10:49.905Z,993.973
2019-03-26T07:12:49.957Z,993.970
2019-03-26T07:14:50.047Z,993.993
2019-03-26T07:16:50.241Z,994.014
2019-03-26T07:18:50.406Z,994.045
2019-03-26T07:20:50.422Z,994.063
2019-03-26T07:22:50.531Z,994.057
2019-03-26T07:24:49.654Z,994.065
2019-03-26T07:26:49.927Z,994.058
2019-03-26T07:28:50.039Z,994.067
2019-03-26T07:30:50.169Z,994.058
2019-03-26T07:32:50.153Z,994.065
2019-03-26T07:34:50.495Z,994.056
2019-03-26T07:36:49.775Z,994.091
2019-03-26T07:38:49.914Z,994.131
2019-03-26T07:40:49.970Z,994.141
2019-03-26T07:42:50.073Z,994.154
2019-03-26T07:44:50.161Z,994.181
2019-03-26T07:46:50.336Z,994.209
2019-03-26T07:48:50.414Z,994.203
2019-03-26T07:50:50.457Z,994.212
2019-03-26T07:52:50.490Z,994.213
2019-03-26T07:54:50.586Z,994.212
2019-03-26T07:56:49.850Z,994.226
2019-03-26T07:58:49.839Z,994.252
2019-03-26T08:00:49.934Z,994.262
2019-03-26T08:02:49.946Z,994.261
2019-03-26T08:04:50.327Z,994.254
2019-03-26T08:06:50.462Z,994.272
2019-03-26T08:08:50.485Z,994.287
2019-03-26T08:10:50.581Z,994.300
2019-03-26T08:12:49.716Z,994.296
2019-03-26T08:14:49.955Z,994.284
2019-03-26T08:16:50.440Z,994.273
2019-03-26T08:18:49.818Z,994.245
2019-03-26T08:20:50.054Z,994.208
2019-03-26T08:22:50.507Z,994.185
2019-03-26T08:24:49.823Z,994.149
2019-03-26T08:26:52.376Z,994.146
2019-03-26T08:28:50.503Z,994.132
2019-03-26T08:30:50.589Z,994.154
2019-03-26T08:32:49.866Z,994.166
2019-03-26T08:34:50.420Z,994.151
2019-03-26T08:36:49.867Z,994.144
2019-03-26T08:38:50.064Z,994.122
2019-03-26T08:40:50.343Z,994.129
2019-03-26T08:42:49.611Z,994.142
2019-03-26T08:44:49.860Z,994.134
2019-03-26T08:46:50.193Z,994.149
2019-03-26T08:48:50.485Z,994.180
2019-03-26T08:50:49.677Z,994.220
2019-03-26T08:52:49.858Z,994.267
2019-03-26T08:54:49.890Z,994.284
2019-03-26T08:56:50.090Z,994.314
2019-03-26T08:58:50.151Z,994.330
2019-03-26T09:00:50.208Z,994.354
2019-03-26T09:02:50.418Z,994.361
2019-03-26T09:04:50.202Z,994.354
2019-03-26T09:06:50.461Z,994.363
2019-03-26T09:08:49.623Z,994.391
2019-03-26T09:10:52.385Z,994.395
2019-03-26T09:12:50.458Z,994.383
2019-03-26T09:14:50.465Z,994.410
2019-03-26T09:16:50.495Z,994.411
2019-03-26T09:18:50.582Z,994.403
2019-03-26T09:20:50.600Z,994.378
2019-03-26T09:22:49.851Z,994.385
2019-03-26T09:24:49.939Z,994.414
2019-03-26T09:26:50.088Z,994.439
2019-03-26T09:28:50.099Z,994.424
2019-03-26T09:30:50.133Z,994.418
2019-03-26T09:32:50.272Z,994.420
2019-03-26T09:34:50.148Z,994.439
2019-03-26T09:36:49.725Z,994.451
2019-03-26T09:38:50.114Z,994.481
2019-03-26T09:40:50.560Z,994.482
2019-03-26T09:42:49.980Z,994.464
2019-03-26T09:44:50.258Z,994.430
2019-03-26T09:46:49.640Z,994.384
2019-03-26T09:48:49.714Z,994.369
2019-03-26T09:50:49.752Z,994.415
2019-03-26T09:52:49.778Z,994.458
2019-03-26T09:54:49.865Z,994.473
2019-03-26T09:56:50.026Z,994.487
2019-03-26T09:58:50.085Z,994.506
2019-03-26T10:00:50.970Z,994.526
2019-03-26T10:02:49.965Z,994.558
2019-03-26T10:04:49.641Z,994.553
2019-03-26T10:06:50.090Z,994.518
2019-03-26T10:08:53.200Z,994.516
2019-03-26T10:10:50.452Z,994.507
2019-03-26T10:12:50.500Z,994.504
2019-03-26T10:14:50.473Z,994.519
2019-03-26T10:16:49.848Z,994.519
2019-03-26T10:18:50.036Z,994.543
2019-03-26T10:20:50.245Z,994.555
2019-03-26T10:22:50.559Z,994.564
2019-03-26T10:24:49.888Z,994.581
2019-03-26T10:26:50.262Z,994.596
2019-03-26T10:28:50.513Z,994.593
2019-03-26T10:30:49.835Z,994.558
2019-03-26T10:32:50.004Z,994.537
2019-03-26T10:34:49.600Z,994.526
2019-03-26T10:36:49.931Z,994.518
2019-03-26T10:38:50.239Z,994.491
2019-03-26T10:40:50.526Z,994.448
2019-03-26T10:42:49.800Z,994.413
2019-03-26T10:44:50.061Z,994.390
2019-03-26T10:46:50.635Z,994.396
2019-03-26T10:48:50.146Z,994.346
2019-03-26T10:50:49.650Z,994.347
2019-03-26T10:52:49.652Z,994.301
2019-03-26T10:54:49.685Z,994.290
2019-03-26T10:56:49.841Z,994.276
2019-03-26T10:58:49.916Z,994.247
2019-03-26T11:00:49.884Z,994.250
2019-03-26T11:02:50.105Z,994.276
2019-03-26T11:04:49.681Z,994.269
2019-03-26T11:06:50.007Z,994.302
2019-03-26T11:08:50.265Z,994.300
2019-03-26T11:10:50.495Z,994.296
2019-03-26T11:12:49.632Z,994.329
2019-03-26T11:14:49.844Z,994.334
2019-03-26T11:16:50.293Z,994.334
2019-03-26T11:18:50.463Z,994.308
2019-03-26T11:21:03.499Z,994.282
2019-03-26T11:22:49.783Z,994.253
2019-03-26T11:24:49.877Z,994.235
2019-03-26T11:26:50.369Z,994.248
2019-03-26T11:28:50.511Z,994.234
2019-03-26T11:30:49.863Z,994.234
2019-03-26T11:32:50.132Z,994.178
2019-03-26T11:34:49.659Z,994.176
2019-03-26T11:36:49.881Z,994.156
2019-03-26T11:38:50.112Z,994.153
2019-03-26T11:40:50.248Z,994.146
2019-03-26T11:42:50.453Z,994.149
2019-03-26T11:44:49.600Z,994.143
2019-03-26T11:46:49.856Z,994.189
2019-03-26T11:48:49.913Z,994.230
2019-03-26T11:50:49.952Z,994.244
2019-03-26T11:52:50.250Z,994.231
2019-03-26T11:54:50.345Z,994.247
2019-03-26T11:56:49.750Z,994.247
2019-03-26T11:58:49.903Z,994.198
2019-03-26T12:00:50.094Z,994.186
2019-03-26T12:02:50.305Z,994.154
2019-03-26T12:04:49.833Z,994.096
2019-03-26T12:06:50.143Z,994.043
2019-03-26T12:08:50.292Z,994.068
2019-03-26T12:10:50.507Z,994.048
2019-03-26T12:12:49.822Z,994.101
2019-03-26T12:14:50.085Z,994.107
2019-03-26T12:16:50.328Z,994.107
2019-03-26T12:18:50.560Z,994.071
2019-03-26T12:20:49.806Z,994.141
2019-03-26T12:22:50.055Z,994.174
2019-03-26T12:24:50.266Z,994.171
2019-03-26T12:26:50.594Z,994.159
2019-03-26T12:28:49.879Z,994.170
2019-03-26T12:30:50.111Z,994.198
2019-03-26T12:32:50.308Z,994.192
2019-03-26T12:34:49.782Z,994.175
2019-03-26T12:36:50.178Z,994.162
2019-03-26T12:38:50.482Z,994.159
2019-03-26T12:40:49.668Z,994.133
2019-03-26T12:42:49.938Z,994.127
2019-03-26T12:44:50.103Z,994.107
2019-03-26T12:46:50.474Z,994.090
2019-03-26T12:48:50.552Z,994.057
2019-03-26T12:50:49.729Z,994.077
2019-03-26T12:52:49.999Z,994.068
2019-03-26T12:54:50.205Z,994.082
2019-03-26T12:56:50.507Z,994.057
2019-03-26T12:58:49.645Z,994.018
2019-03-26T13:00:49.963Z,993.961
2019-03-26T13:02:50.229Z,993.961
2019-03-26T13:04:49.911Z,993.989
2019-03-26T13:06:50.260Z,994.011
2019-03-26T13:08:50.508Z,993.994
2019-03-26T13:10:54.465Z,993.932
2019-03-26T13:12:49.686Z,993.889
2019-03-26T13:14:49.917Z,993.858
2019-03-26T13:16:50.257Z,993.867
2019-03-26T13:18:50.437Z,993.848
2019-03-26T13:20:49.682Z,993.838
2019-03-26T13:22:49.916Z,993.809
2019-03-26T13:24:50.197Z,993.767
2019-03-26T13:26:50.618Z,993.724
2019-03-26T13:28:49.838Z,993.687
2019-03-26T13:30:50.017Z,993.676
2019-03-26T13:32:50.232Z,993.658
2019-03-26T13:34:49.679Z,993.650
2019-03-26T13:36:49.985Z,993.640
2019-03-26T13:38:50.195Z,993.594
2019-03-26T13:40:50.182Z,993.601
2019-03-26T13:42:50.256Z,993.602
2019-03-26T13:44:50.300Z,993.600
2019-03-26T13:46:50.447Z,993.585
2019-03-26T13:48:50.387Z,993.579
2019-03-26T13:50:50.548Z,993.580
2019-03-26T13:52:49.610Z,993.563
2019-03-26T13:54:50.614Z,993.546
2019-03-26T13:56:49.795Z,993.508
2019-03-26T13:58:49.976Z,993.484
2019-03-26T14:00:50.210Z,993.501
2019-03-26T14:02:50.382Z,993.505
2019-03-26T14:04:50.085Z,993.541
2019-03-26T14:06:52.913Z,993.578
2019-03-26T14:08:50.139Z,993.608
2019-03-26T14:10:50.357Z,993.643
2019-03-26T14:12:49.716Z,993.616
2019-03-26T14:14:50.074Z,993.576
2019-03-26T14:16:50.559Z,993.614
2019-03-26T14:18:50.504Z,993.606
2019-03-26T14:20:50.604Z,993.631
2019-03-26T14:22:49.620Z,993.666
2019-03-26T14:24:49.722Z,993.675
2019-03-26T14:26:49.936Z,993.696
2019-03-26T14:28:50.210Z,993.689
2019-03-26T14:30:50.309Z,993.686
2019-03-26T14:32:50.561Z,993.700
2019-03-26T14:34:52.118Z,993.716
2019-03-26T14:36:50.303Z,993.731
2019-03-26T14:38:50.372Z,993.711
2019-03-26T14:40:55.895Z,993.691
2019-03-26T14:42:49.986Z,993.695
2019-03-26T14:44:50.436Z,993.688
2019-03-26T14:46:49.733Z,993.652
2019-03-26T14:48:49.994Z,993.662
2019-03-26T14:50:50.182Z,993.653
2019-03-26T14:52:50.462Z,993.600
2019-03-26T14:54:49.616Z,993.600
2019-03-26T14:56:49.873Z,993.602
2019-03-26T14:58:49.893Z,993.588
2019-03-26T15:00:49.914Z,993.579
2019-03-26T15:02:49.984Z,993.583
2019-03-26T15:04:50.455Z,993.639
2019-03-26T15:06:50.572Z,993.658
2019-03-26T15:08:49.702Z,993.673
2019-03-26T15:10:49.965Z,993.681
2019-03-26T15:12:50.037Z,993.646
2019-03-26T15:14:50.081Z,993.629
2019-03-26T15:16:50.226Z,993.591
2019-03-26T15:18:50.339Z,993.584
2019-03-26T15:20:50.439Z,993.553
2019-03-26T15:22:50.494Z,993.563
2019-03-26T15:24:50.589Z,993.628
2019-03-26T15:26:49.714Z,993.646
2019-03-26T15:28:49.776Z,993.669
2019-03-26T15:30:49.862Z,993.655
2019-03-26T15:32:49.855Z,993.637
2019-03-26T15:34:50.254Z,993.655
2019-03-26T15:36:50.560Z,993.661
2019-03-26T15:38:49.768Z,993.652
2019-03-26T15:40:49.953Z,993.673
2019-03-26T15:42:50.179Z,993.649
2019-03-26T15:44:50.491Z,993.641
2019-03-26T15:46:49.967Z,993.631
2019-03-26T15:48:50.295Z,993.607
2019-03-26T15:50:50.421Z,993.592
2019-03-26T15:52:49.767Z,993.596
2019-03-26T15:54:49.924Z,993.612
2019-03-26T15:56:50.248Z,993.591
2019-03-26T15:58:50.350Z,993.577
2019-03-26T16:00:50.308Z,993.566
2019-03-26T16:02:50.451Z,993.534
2019-03-26T16:04:49.955Z,993.512
2019-03-26T16:06:50.133Z,993.535
2019-03-26T16:08:50.160Z,993.557
2019-03-26T16:10:50.210Z,993.552
2019-03-26T16:12:50.251Z,993.589
2019-03-26T16:14:50.263Z,993.606
2019-03-26T16:16:50.423Z,993.604
2019-03-26T16:18:50.402Z,993.611
2019-03-26T16:20:50.457Z,993.608
2019-03-26T16:22:50.477Z,993.567
2019-03-26T16:24:53.679Z,993.558
2019-03-26T16:26:50.017Z,993.542
2019-03-26T16:28:50.087Z,993.580
2019-03-26T16:30:50.141Z,993.593
2019-03-26T16:32:50.182Z,993.593
2019-03-26T16:34:50.580Z,993.621
2019-03-26T16:37:00.299Z,993.628
2019-03-26T16:38:50.312Z,993.635
2019-03-26T16:40:50.389Z,993.637
2019-03-26T16:42:50.379Z,993.637
2019-03-26T16:44:50.413Z,993.654
2019-03-26T16:46:49.824Z,993.665
2019-03-26T16:48:49.848Z,993.681
2019-03-26T16:50:49.918Z,993.694
2019-03-26T16:52:50.003Z,993.706
2019-03-26T16:54:50.002Z,993.714
2019-03-26T16:56:50.310Z,993.714
2019-03-26T16:58:50.371Z,993.731
2019-03-26T17:00:50.593Z,993.748
2019-03-26T17:02:49.624Z,993.729
2019-03-26T17:04:49.993Z,993.737
2019-03-26T17:06:50.190Z,993.759
2019-03-26T17:08:50.214Z,993.773
2019-03-26T17:10:50.247Z,993.773
2019-03-26T17:12:50.352Z,993.771
2019-03-26T17:14:50.387Z,993.770
2019-03-26T17:16:50.475Z,993.789
2019-03-26T17:18:49.658Z,993.786
2019-03-26T17:20:49.776Z,993.774
2019-03-26T17:22:49.855Z,993.780
2019-03-26T17:24:49.987Z,993.779
2019-03-26T17:26:50.235Z,993.786
2019-03-26T17:28:50.237Z,993.804
2019-03-26T17:30:50.226Z,993.810
2019-03-26T17:32:50.250Z,993.815
2019-03-26T17:34:50.554Z,993.828
2019-03-26T17:36:49.841Z,993.823
2019-03-26T17:38:49.896Z,993.826
2019-03-26T17:40:49.927Z,993.848
2019-03-26T17:42:49.957Z,993.858
2019-03-26T17:44:49.893Z,993.878
2019-03-26T17:46:49.939Z,993.875
2019-03-26T17:48:50.052Z,993.896
2019-03-26T17:50:50.204Z,993.905
2019-03-26T17:52:50.236Z,993.907
2019-03-26T17:54:50.260Z,993.912
2019-03-26T17:56:50.445Z,993.894
2019-03-26T17:58:50.522Z,993.889
2019-03-26T18:00:50.605Z,993.919
2019-03-26T18:02:49.688Z,993.915
2019-03-26T18:04:50.087Z,993.927
2019-03-26T18:06:50.375Z,993.949
2019-03-26T18:08:50.474Z,993.961
2019-03-26T18:10:50.493Z,993.957
2019-03-26T18:12:49.654Z,993.963
2019-03-26T18:14:49.697Z,993.959
2019-03-26T18:16:49.895Z,993.975
2019-03-26T18:18:50.080Z,993.992
2019-03-26T18:20:50.172Z,993.998
2019-03-26T18:22:50.145Z,993.987
2019-03-26T18:24:50.182Z,994.010
2019-03-26T18:26:50.240Z,994.020
2019-03-26T18:28:50.294Z,994.048
2019-03-26T18:30:50.348Z,994.072
2019-03-26T18:32:50.433Z,994.075
2019-03-26T18:34:49.988Z,994.082
2019-03-26T18:36:50.208Z,994.082
2019-03-26T18:38:50.278Z,994.050
2019-03-26T18:40:50.377Z,994.037
2019-03-26T18:42:50.355Z,994.072
2019-03-26T18:44:50.487Z,994.081
2019-03-26T18:46:49.718Z,994.092
2019-03-26T18:48:49.841Z,994.103
2019-03-26T18:50:49.819Z,994.132
2019-03-26T18:52:49.920Z,994.154
2019-03-26T18:54:49.930Z,994.159
2019-03-26T18:56:50.124Z,994.181
2019-03-26T18:58:50.094Z,994.181
2019-03-26T19:00:50.081Z,994.204
2019-03-26T19:02:50.248Z,994.212
2019-03-26T19:04:50.621Z,994.205
2019-03-26T19:06:49.643Z,994.217
2019-03-26T19:08:49.662Z,994.236
2019-03-26T19:10:49.744Z,994.232
2019-03-26T19:12:57.593Z,994.240
2019-03-26T19:14:49.619Z,994.237
2019-03-26T19:16:49.761Z,994.235
2019-03-26T19:18:49.840Z,994.268
2019-03-26T19:21:02.940Z,994.296
2019-03-26T19:22:50.028Z,994.280
2019-03-26T19:24:50.024Z,994.263
2019-03-26T19:26:50.246Z,994.240
2019-03-26T19:28:50.319Z,994.238
2019-03-26T19:30:50.324Z,994.238
2019-03-26T19:32:50.418Z,994.234
2019-03-26T19:34:49.823Z,994.236
2019-03-26T19:36:49.988Z,994.235
2019-03-26T19:38:50.072Z,994.236
2019-03-26T19:40:50.047Z,994.236
2019-03-26T19:42:50.086Z,994.238
2019-03-26T19:44:50.072Z,994.229
2019-03-26T19:46:50.341Z,994.224
2019-03-26T19:48:50.377Z,994.229
2019-03-26T19:50:50.383Z,994.218
2019-03-26T19:52:50.330Z,994.223
2019-03-26T19:54:50.299Z,994.233
2019-03-26T19:56:49.620Z,994.237
2019-03-26T19:58:49.679Z,994.227
2019-03-26T20:00:49.803Z,994.231
2019-03-26T20:02:49.811Z,994.234
2019-03-26T20:04:50.273Z,994.234
2019-03-26T20:06:50.342Z,994.241
2019-03-26T20:08:50.435Z,994.266
2019-03-26T20:10:50.512Z,994.259
2019-03-26T20:12:50.635Z,994.237
2019-03-26T20:14:49.635Z,994.220
2019-03-26T20:16:49.738Z,994.229
2019-03-26T20:18:49.809Z,994.235
2019-03-26T20:20:49.762Z,994.228
2019-03-26T20:22:49.959Z,994.238
2019-03-26T20:24:50.004Z,994.243
2019-03-26T20:26:50.412Z,994.279
2019-03-26T20:28:50.426Z,994.288
2019-03-26T20:30:50.578Z,994.288
2019-03-26T20:32:49.665Z,994.301
2019-03-26T20:34:50.132Z,994.316
2019-03-26T20:36:50.305Z,994.336
2019-03-26T20:38:51.724Z,994.333
2019-03-26T20:40:49.772Z,994.331
2019-03-26T20:42:49.799Z,994.343
2019-03-26T20:44:49.923Z,994.368
2019-03-26T20:46:50.149Z,994.371
2019-03-26T20:48:50.188Z,994.402
2019-03-26T20:50:50.213Z,994.443
2019-03-26T20:52:50.175Z,994.468
2019-03-26T20:54:50.242Z,994.500
2019-03-26T20:56:50.521Z,994.514
2019-03-26T20:58:50.564Z,994.528
2019-03-26T21:00:49.693Z,994.540
2019-03-26T21:02:49.742Z,994.550
2019-03-26T21:04:50.301Z,994.549
2019-03-26T21:06:50.487Z,994.556
2019-03-26T21:08:50.588Z,994.544
2019-03-26T21:10:49.653Z,994.569
2019-03-26T21:12:49.729Z,994.593
2019-03-26T21:14:49.814Z,994.621
2019-03-26T21:16:49.940Z,994.637
2019-03-26T21:18:50.028Z,994.675
2019-03-26T21:20:50.154Z,994.735
2019-03-26T21:22:50.252Z,994.767
2019-03-26T21:24:50.322Z,994.829
2019-03-26T21:26:49.643Z,994.908
2019-03-26T21:28:49.720Z,994.931
2019-03-26T21:30:49.697Z,994.952
2019-03-26T21:32:49.907Z,994.959
2019-03-26T21:34:50.974Z,994.970
2019-03-26T21:36:50.537Z,994.980
2019-03-26T21:38:50.607Z,994.960
2019-03-26T21:40:49.631Z,994.958
2019-03-26T21:42:49.766Z,994.965
2019-03-26T21:44:49.811Z,994.982
2019-03-26T21:46:50.056Z,994.982
2019-03-26T21:48:50.193Z,994.963
2019-03-26T21:50:50.249Z,994.945
2019-03-26T21:52:50.196Z,994.954
2019-03-26T21:54:50.251Z,994.931
2019-03-26T21:56:50.355Z,994.931
2019-03-26T21:58:50.521Z,994.922
2019-03-26T22:00:50.519Z,994.912
2019-03-26T22:02:50.592Z,994.919
2019-03-26T22:04:50.078Z,994.909
2019-03-26T22:06:50.272Z,994.913
2019-03-26T22:08:50.321Z,994.898
2019-03-26T22:10:50.531Z,994.880
2019-03-26T22:12:50.646Z,994.883
2019-03-26T22:14:49.646Z,994.860
2019-03-26T22:16:49.942Z,994.840
2019-03-26T22:18:49.944Z,994.829
2019-03-26T22:20:50.102Z,994.841
2019-03-26T22:22:50.313Z,994.851
2019-03-26T22:24:50.460Z,994.851
2019-03-26T22:26:49.923Z,994.839
2019-03-26T22:28:49.928Z,994.838
2019-03-26T22:30:49.936Z,994.849
2019-03-26T22:32:50.106Z,994.870
2019-03-26T22:34:50.582Z,994.870
2019-03-26T22:36:49.686Z,994.890
2019-03-26T22:38:49.772Z,994.937
2019-03-26T22:40:49.806Z,994.956
2019-03-26T22:42:49.913Z,994.984
2019-03-26T22:44:49.905Z,995.021
2019-03-26T22:46:50.033Z,995.057
2019-03-26T22:48:50.049Z,995.070
2019-03-26T22:50:50.105Z,995.080
2019-03-26T22:52:50.271Z,995.075
2019-03-26T22:54:50.312Z,995.087
2019-03-26T22:56:50.559Z,995.101
2019-03-26T22:58:49.624Z,995.115
2019-03-26T23:00:49.704Z,995.111
2019-03-26T23:02:49.879Z,995.123
2019-03-26T23:04:50.303Z,995.125
2019-03-26T23:06:50.530Z,995.137
2019-03-26T23:08:49.589Z,995.177
2019-03-26T23:10:50.535Z,995.197
2019-03-26T23:12:49.663Z,995.229
2019-03-26T23:14:51.463Z,995.229
2019-03-26T23:16:49.620Z,995.249
2019-03-26T23:18:49.735Z,995.266
2019-03-26T23:20:49.684Z,995.251
2019-03-26T23:22:49.832Z,995.265
2019-03-26T23:24:49.845Z,995.273
2019-03-26T23:26:49.970Z,995.279
2019-03-26T23:28:49.976Z,995.290
2019-03-26T23:30:50.027Z,995.318
2019-03-26T23:32:50.114Z,995.320
2019-03-26T23:34:50.504Z,995.286
2019-03-26T23:36:49.646Z,995.298
2019-03-26T23:38:49.736Z,995.290
2019-03-26T23:40:49.717Z,995.297
2019-03-26T23:42:49.873Z,995.324
2019-03-26T23:44:58.974Z,995.347
2019-03-26T23:46:50.156Z,995.344
2019-03-26T23:48:50.242Z,995.339
2019-03-26T23:50:50.370Z,995.351
2019-03-26T23:52:50.377Z,995.334
2019-03-26T23:54:50.478Z,995.347
2019-03-26T23:56:49.638Z,995.352
2019-03-26T23:58:49.724Z,995.349
